createdAt,value
2022-08-02T00:00:00.072Z,19.7
2022-08-02T00:10:00.126Z,19.7
2022-08-02T00:20:00.132Z,19.7
2022-08-02T00:30:01.226Z,19.4
2022-08-02T00:40:01.011Z,19.2
2022-08-02T00:50:00.087Z,19.2
2022-08-02T01:00:00.108Z,19.1
2022-08-02T01:10:00.144Z,19.2
2022-08-02T01:20:01.334Z,19.0
2022-08-02T01:30:00.094Z,19.0
2022-08-02T01:40:01.197Z,18.8
2022-08-02T01:50:00.089Z,19.0
2022-08-02T02:00:00.113Z,19.0
2022-08-02T02:10:00.089Z,19.0
2022-08-02T02:20:00.094Z,19.0
2022-08-02T02:30:00.116Z,18.8
2022-08-02T02:40:00.118Z,18.8
2022-08-02T02:50:00.128Z,18.6
2022-08-02T03:00:00.112Z,18.6
2022-08-02T03:10:00.096Z,18.6
2022-08-02T03:20:00.116Z,18.7
2022-08-02T03:30:01.046Z,18.6
2022-08-02T03:40:00.096Z,18.3
2022-08-02T03:50:00.141Z,18.1
2022-08-02T04:00:00.129Z,17.9
2022-08-02T04:10:01.394Z,17.9
2022-08-02T04:20:00.148Z,18.0
2022-08-02T04:30:00.120Z,18.0
2022-08-02T04:40:00.124Z,18.1
2022-08-02T04:50:00.117Z,18.3
2022-08-02T05:00:01.500Z,18.4
2022-08-02T05:10:00.106Z,18.5
2022-08-02T05:20:00.130Z,18.4
2022-08-02T05:30:00.118Z,18.5
2022-08-02T05:40:00.927Z,18.8
2022-08-02T05:50:00.127Z,19.0
2022-08-02T06:00:00.115Z,18.7
2022-08-02T06:10:00.124Z,19.2
2022-08-02T06:20:00.155Z,19.3
2022-08-02T06:30:00.110Z,19.5
2022-08-02T06:40:00.115Z,19.9
2022-08-02T06:50:00.388Z,20.1
2022-08-02T07:00:00.106Z,20.0
2022-08-02T07:10:01.081Z,20.2
2022-08-02T07:20:00.145Z,20.1
2022-08-02T07:30:00.129Z,20.3
2022-08-02T07:40:00.092Z,20.7
2022-08-02T07:50:00.153Z,20.8
2022-08-02T08:00:00.100Z,20.8
2022-08-02T08:10:00.122Z,21.4
2022-08-02T08:20:00.135Z,21.2
2022-08-02T08:30:00.081Z,21.8
2022-08-02T08:40:00.155Z,21.8
2022-08-02T08:50:00.119Z,22.1
2022-08-02T09:00:00.104Z,22.6
2022-08-02T09:10:00.124Z,22.9
2022-08-02T09:20:00.110Z,22.8
2022-08-02T09:30:11.804Z,23.1
2022-08-02T09:40:00.161Z,22.7
2022-08-02T09:50:00.141Z,23.4
2022-08-02T10:00:00.124Z,23.9
2022-08-02T10:10:00.167Z,23.3
2022-08-02T10:20:04.050Z,23.8
2022-08-02T10:30:00.158Z,24.1
2022-08-02T10:40:00.120Z,24.6
2022-08-02T10:50:00.287Z,25.3
2022-08-02T11:00:00.123Z,27.4
2022-08-02T11:10:00.108Z,24.3
2022-08-02T11:20:00.128Z,28.8
2022-08-02T11:30:00.124Z,29.7
2022-08-02T11:40:00.086Z,28.6
2022-08-02T11:50:00.110Z,29.5
2022-08-02T12:00:00.122Z,28.5
2022-08-02T12:10:00.129Z,29.9
2022-08-02T12:20:00.132Z,29.6
2022-08-02T12:30:00.127Z,29.3
2022-08-02T12:40:00.097Z,30.3
2022-08-02T12:50:00.231Z,31.6
2022-08-02T13:00:00.123Z,31.3
2022-08-02T13:10:00.455Z,30.8
2022-08-02T13:20:00.085Z,29.1
2022-08-02T13:30:00.130Z,30.7
2022-08-02T13:40:20.334Z,31.3
2022-08-02T13:50:01.176Z,32.3
2022-08-02T14:00:00.151Z,32.4
2022-08-02T14:10:00.106Z,32.5
2022-08-02T14:20:00.114Z,32.2
2022-08-02T14:30:00.140Z,30.4
2022-08-02T14:40:01.121Z,29.1
2022-08-02T14:50:00.222Z,30.9
2022-08-02T15:00:00.120Z,32.6
2022-08-02T15:10:00.126Z,30.6
2022-08-02T15:20:03.076Z,30.9
2022-08-02T15:30:00.677Z,31.2
2022-08-02T15:40:01.209Z,29.9
2022-08-02T15:50:00.113Z,28.8
2022-08-02T16:00:00.124Z,29.0
2022-08-02T16:10:00.129Z,28.9
2022-08-02T16:20:00.112Z,28.4
2022-08-02T16:30:00.125Z,28.3
2022-08-02T16:40:00.142Z,28.2
2022-08-02T16:50:04.367Z,28.9
2022-08-02T17:00:00.199Z,28.8
2022-08-02T17:10:01.719Z,27.7
2022-08-02T17:20:01.408Z,27.6
2022-08-02T17:30:00.158Z,27.1
2022-08-02T17:40:00.144Z,27.0
2022-08-02T17:50:00.281Z,27.1
2022-08-02T18:00:03.853Z,26.6
2022-08-02T18:10:00.108Z,26.4
2022-08-02T18:20:06.039Z,26.2
2022-08-02T18:30:04.301Z,25.5
2022-08-02T18:40:00.112Z,25.2
2022-08-02T18:50:00.225Z,25.2
2022-08-02T19:00:02.580Z,25.2
2022-08-02T19:10:00.138Z,24.9
2022-08-02T19:20:00.140Z,24.4
2022-08-02T19:30:00.155Z,24.0
2022-08-02T19:40:00.118Z,23.8
2022-08-02T19:50:00.163Z,23.4
2022-08-02T20:00:00.171Z,23.3
2022-08-02T20:10:00.120Z,23.2
2022-08-02T20:20:00.146Z,22.9
2022-08-02T20:30:00.107Z,22.7
2022-08-02T20:40:00.119Z,22.7
2022-08-02T20:50:00.180Z,22.5
2022-08-02T21:00:00.129Z,22.3
2022-08-02T21:10:00.116Z,22.1
2022-08-02T21:20:01.451Z,22.0
2022-08-02T21:30:00.107Z,21.9
2022-08-02T21:40:00.138Z,21.8
2022-08-02T21:50:09.069Z,21.7
2022-08-02T22:00:00.110Z,21.6
2022-08-02T22:10:00.146Z,21.5
2022-08-02T22:20:00.127Z,21.6
2022-08-02T22:30:00.079Z,21.5
2022-08-02T22:40:06.168Z,21.4
2022-08-02T22:50:00.219Z,21.3
2022-08-02T23:00:00.229Z,21.2
2022-08-02T23:10:00.110Z,21.0
2022-08-02T23:20:00.128Z,21.0
2022-08-02T23:30:00.116Z,20.9
2022-08-02T23:40:00.154Z,20.8
2022-08-02T23:50:00.286Z,20.9
